createdAt,value
2017-01-16T00:00:37.023Z,5.83
2017-01-16T00:01:17.773Z,5.74
2017-01-16T00:01:58.315Z,5.79
2017-01-16T00:02:38.937Z,5.71
2017-01-16T00:03:19.468Z,5.78
2017-01-16T00:04:00.075Z,5.68
2017-01-16T00:04:40.869Z,5.78
2017-01-16T00:05:21.324Z,5.81
2017-01-16T00:06:01.918Z,5.83
2017-01-16T00:06:42.726Z,5.89
2017-01-16T00:07:23.408Z,5.85
2017-01-16T00:08:03.806Z,5.72
2017-01-16T00:08:44.345Z,5.9
2017-01-16T00:09:24.841Z,5.86
2017-01-16T00:10:05.344Z,5.76
2017-01-16T00:10:45.845Z,5.74
2017-01-16T00:11:26.356Z,5.75
2017-01-16T00:12:06.849Z,5.65
2017-01-16T00:12:47.359Z,5.71
2017-01-16T00:13:27.841Z,5.75
2017-01-16T00:14:08.314Z,5.74
2017-01-16T00:14:48.816Z,5.74
2017-01-16T00:15:29.339Z,5.68
2017-01-16T00:16:09.838Z,5.75
2017-01-16T00:16:50.340Z,5.72
2017-01-16T00:17:30.865Z,5.91
2017-01-16T00:18:11.367Z,5.68
2017-01-16T00:18:51.829Z,5.76
2017-01-16T00:19:32.340Z,5.89
2017-01-16T00:20:12.802Z,5.89
2017-01-16T00:20:53.313Z,5.85
2017-01-16T00:21:33.820Z,5.65
2017-01-16T00:22:14.361Z,5.74
2017-01-16T00:22:54.801Z,5.82
2017-01-16T00:23:35.315Z,5.79
2017-01-16T00:24:15.773Z,5.74
2017-01-16T00:24:56.262Z,5.71
2017-01-16T00:25:38.225Z,5.76
2017-01-16T00:26:17.212Z,5.85
2017-01-16T00:26:57.766Z,5.82
2017-01-16T00:27:38.272Z,5.72
2017-01-16T00:28:18.787Z,5.75
2017-01-16T00:28:59.217Z,5.71
2017-01-16T00:29:39.766Z,5.74
2017-01-16T00:30:20.241Z,5.74
2017-01-16T00:31:00.713Z,5.74
2017-01-16T00:31:41.223Z,5.75
2017-01-16T00:32:21.761Z,5.71
2017-01-16T00:33:02.216Z,5.68
2017-01-16T00:33:42.780Z,5.67
2017-01-16T00:34:23.270Z,5.64
2017-01-16T00:35:03.724Z,5.6
2017-01-16T00:35:44.212Z,5.64
2017-01-16T00:36:24.726Z,5.64
2017-01-16T00:37:05.437Z,5.63
2017-01-16T00:37:45.924Z,5.65
2017-01-16T00:38:26.401Z,5.65
2017-01-16T00:39:06.881Z,5.72
2017-01-16T00:39:47.385Z,5.65
2017-01-16T00:40:27.861Z,5.64
2017-01-16T00:41:08.327Z,5.68
2017-01-16T00:41:48.833Z,5.71
2017-01-16T00:42:29.359Z,5.63
2017-01-16T00:43:09.834Z,5.67
2017-01-16T00:43:50.308Z,5.63
2017-01-16T00:44:30.776Z,5.65
2017-01-16T00:45:11.278Z,5.6
2017-01-16T00:45:51.771Z,5.61
2017-01-16T00:46:32.255Z,5.54
2017-01-16T00:47:12.770Z,5.64
2017-01-16T00:47:53.286Z,5.61
2017-01-16T00:48:33.747Z,5.57
2017-01-16T00:49:14.226Z,5.51
2017-01-16T00:49:54.728Z,5.58
2017-01-16T00:50:35.247Z,5.63
2017-01-16T00:51:15.760Z,5.6
2017-01-16T00:51:56.205Z,5.45
2017-01-16T00:52:36.686Z,5.58
2017-01-16T00:53:17.189Z,5.6
2017-01-16T00:53:57.637Z,5.61
2017-01-16T00:54:38.362Z,5.6
2017-01-16T00:55:18.904Z,5.6
2017-01-16T00:55:59.398Z,5.74
2017-01-16T00:56:39.858Z,5.74
2017-01-16T00:57:20.395Z,5.75
2017-01-16T00:58:00.848Z,5.76
2017-01-16T00:58:41.358Z,5.64
2017-01-16T00:59:21.805Z,5.64
2017-01-16T01:00:02.302Z,5.65
2017-01-16T01:00:42.797Z,5.68
2017-01-16T01:01:23.285Z,5.74
2017-01-16T01:02:03.771Z,5.57
2017-01-16T01:02:44.297Z,5.58
2017-01-16T01:03:24.787Z,5.65
2017-01-16T01:04:05.231Z,5.64
2017-01-16T01:04:45.726Z,5.54
2017-01-16T01:05:26.282Z,5.56
2017-01-16T01:06:06.736Z,5.42
2017-01-16T01:06:47.262Z,5.43
2017-01-16T01:07:27.740Z,5.56
2017-01-16T01:08:08.267Z,5.53
2017-01-16T01:08:48.700Z,5.42
2017-01-16T01:09:29.235Z,5.46
2017-01-16T01:10:09.757Z,5.43
2017-01-16T01:10:50.232Z,5.38
2017-01-16T01:11:30.676Z,5.39
2017-01-16T01:12:11.184Z,5.46
2017-01-16T01:12:51.688Z,5.35
2017-01-16T01:13:32.176Z,5.3
2017-01-16T01:14:12.636Z,5.28
2017-01-16T01:14:53.149Z,5.28
2017-01-16T01:15:33.860Z,5.39
2017-01-16T01:16:14.419Z,5.35
2017-01-16T01:16:54.864Z,5.39
2017-01-16T01:17:35.313Z,5.48
2017-01-16T01:18:15.841Z,5.35
2017-01-16T01:18:56.291Z,5.35
2017-01-16T01:19:36.729Z,5.43
2017-01-16T01:20:17.212Z,5.28
2017-01-16T01:20:57.718Z,5.39
2017-01-16T01:21:38.169Z,5.31
2017-01-16T01:22:18.668Z,5.31
2017-01-16T01:22:59.158Z,5.33
2017-01-16T01:23:39.713Z,5.46
2017-01-16T01:24:20.166Z,5.51
2017-01-16T01:25:00.679Z,5.33
2017-01-16T01:25:41.198Z,5.4
2017-01-16T01:26:21.756Z,5.39
2017-01-16T01:27:02.227Z,5.4
2017-01-16T01:27:42.713Z,5.4
2017-01-16T01:29:56.484Z,5.4
2017-01-16T01:30:36.651Z,5.4
2017-01-16T01:31:17.108Z,5.4
2017-01-16T01:31:57.589Z,5.46
2017-01-16T01:32:38.045Z,5.54
2017-01-16T01:33:18.578Z,5.53
2017-01-16T01:33:59.135Z,5.43
2017-01-16T01:34:39.633Z,5.54
2017-01-16T01:35:20.138Z,5.4
2017-01-16T01:36:00.568Z,5.35
2017-01-16T01:36:41.132Z,5.42
2017-01-16T01:37:21.572Z,5.54
2017-01-16T01:38:02.009Z,5.61
2017-01-16T01:38:42.590Z,5.57
2017-01-16T01:39:23.065Z,5.58
2017-01-16T01:40:03.642Z,5.71
2017-01-16T01:40:44.361Z,5.72
2017-01-16T01:41:24.841Z,5.57
2017-01-16T01:42:05.392Z,5.61
2017-01-16T01:42:45.830Z,5.53
2017-01-16T01:43:26.469Z,5.53
2017-01-16T01:44:07.141Z,5.49
2017-01-16T01:44:47.596Z,5.46
2017-01-16T01:45:28.337Z,5.54
2017-01-16T01:46:08.834Z,5.57
2017-01-16T01:46:49.276Z,5.53
2017-01-16T01:47:29.762Z,5.51
2017-01-16T01:48:10.231Z,5.54
2017-01-16T01:48:50.725Z,5.6
2017-01-16T01:50:28.828Z,5.68
2017-01-16T01:51:09.172Z,5.71
2017-01-16T01:51:49.686Z,5.74
2017-01-16T01:52:30.148Z,5.56
2017-01-16T01:53:10.626Z,5.6
2017-01-16T01:53:51.132Z,5.58
2017-01-16T01:54:31.620Z,5.68
2017-01-16T01:55:12.134Z,5.68
2017-01-16T01:55:52.671Z,5.76
2017-01-16T01:56:33.111Z,5.64
2017-01-16T01:57:13.609Z,5.63
2017-01-16T01:57:54.113Z,5.56
2017-01-16T01:58:34.580Z,5.64
2017-01-16T01:59:15.084Z,5.56
2017-01-16T01:59:55.599Z,5.61
2017-01-16T02:00:36.126Z,5.54
2017-01-16T02:01:16.579Z,5.65
2017-01-16T02:01:57.092Z,5.57
2017-01-16T02:02:37.603Z,5.63
2017-01-16T02:03:18.042Z,5.63
2017-01-16T02:03:59.814Z,5.6
2017-01-16T02:04:43.913Z,5.61
2017-01-16T02:05:24.380Z,5.51
2017-01-16T02:06:04.956Z,5.58
2017-01-16T02:06:45.436Z,5.53
2017-01-16T02:07:25.918Z,5.49
2017-01-16T02:08:06.367Z,5.48
2017-01-16T02:08:46.830Z,5.49
2017-01-16T02:09:27.356Z,5.53
2017-01-16T02:10:07.847Z,5.57
2017-01-16T02:10:48.311Z,5.57
2017-01-16T02:11:28.852Z,5.54
2017-01-16T02:12:09.311Z,5.58
2017-01-16T02:12:49.912Z,5.57
2017-01-16T02:13:30.335Z,5.61
2017-01-16T02:14:10.819Z,5.68
2017-01-16T02:14:51.308Z,5.63
2017-01-16T02:15:31.858Z,5.79
2017-01-16T02:16:12.262Z,5.64
2017-01-16T02:16:52.765Z,5.57
2017-01-16T02:17:33.232Z,5.51
2017-01-16T02:18:13.747Z,5.46
2017-01-16T02:18:54.223Z,5.53
2017-01-16T02:19:34.681Z,5.51
2017-01-16T02:21:48.328Z,5.51
2017-01-16T02:22:28.413Z,5.46
2017-01-16T02:23:08.963Z,5.57
2017-01-16T02:23:49.466Z,5.36
2017-01-16T02:24:29.885Z,5.46
2017-01-16T02:25:10.413Z,5.58
2017-01-16T02:25:50.907Z,5.61
2017-01-16T02:26:31.320Z,5.63
2017-01-16T02:27:11.794Z,5.64
2017-01-16T02:27:52.319Z,5.67
2017-01-16T02:28:32.754Z,5.61
2017-01-16T02:29:13.272Z,5.61
2017-01-16T02:29:53.773Z,5.61
2017-01-16T02:30:34.265Z,5.51
2017-01-16T02:31:14.692Z,5.46
2017-01-16T02:31:55.187Z,5.61
2017-01-16T02:32:35.700Z,5.72
2017-01-16T02:33:16.177Z,5.71
2017-01-16T02:33:56.725Z,5.67
2017-01-16T02:34:37.170Z,5.57
2017-01-16T02:35:17.607Z,5.63
2017-01-16T02:35:58.159Z,5.61
2017-01-16T02:36:38.655Z,5.57
2017-01-16T02:37:19.144Z,5.56
2017-01-16T02:37:59.611Z,5.56
2017-01-16T02:38:40.109Z,5.58
2017-01-16T02:39:20.570Z,5.61
2017-01-16T02:40:01.043Z,5.63
2017-01-16T02:40:41.722Z,5.74
2017-01-16T02:41:22.188Z,5.74
2017-01-16T02:42:02.685Z,5.76
2017-01-16T02:42:43.154Z,5.65
2017-01-16T02:43:23.663Z,5.78
2017-01-16T02:44:04.149Z,5.61
2017-01-16T02:44:44.613Z,5.61
2017-01-16T02:45:25.108Z,5.53
2017-01-16T02:46:05.595Z,5.56
2017-01-16T02:46:46.075Z,5.57
2017-01-16T02:47:26.517Z,5.72
2017-01-16T02:48:07.147Z,5.68
2017-01-16T02:48:47.509Z,5.65
2017-01-16T02:49:27.978Z,5.78
2017-01-16T02:50:08.487Z,5.72
2017-01-16T02:50:49.000Z,5.71
2017-01-16T02:51:30.708Z,5.74
2017-01-16T02:52:13.243Z,5.82
2017-01-16T02:52:53.707Z,5.68
2017-01-16T02:53:35.063Z,5.78
2017-01-16T02:59:03.540Z,5.74
2017-01-16T02:59:43.535Z,5.58
2017-01-16T03:00:24.151Z,5.49
2017-01-16T03:01:06.261Z,5.64
2017-01-16T03:01:46.724Z,5.64
2017-01-16T03:02:27.263Z,5.65
2017-01-16T03:03:08.629Z,5.65
2017-01-16T03:03:52.117Z,5.75
2017-01-16T03:04:34.467Z,5.61
2017-01-16T03:05:14.477Z,5.65
2017-01-16T03:05:54.936Z,5.56
2017-01-16T03:06:35.456Z,5.64
2017-01-16T03:07:15.914Z,5.6
2017-01-16T03:07:58.122Z,5.54
2017-01-16T03:08:38.615Z,5.57
2017-01-16T03:09:19.095Z,5.49
2017-01-16T03:09:59.666Z,5.45
2017-01-16T03:10:40.121Z,5.49
2017-01-16T03:11:20.633Z,5.57
2017-01-16T03:12:01.215Z,5.57
2017-01-16T03:12:41.746Z,5.42
2017-01-16T03:13:23.991Z,5.56
2017-01-16T03:14:04.516Z,5.56
2017-01-16T03:14:45.048Z,5.57
2017-01-16T03:15:25.895Z,5.54
2017-01-16T03:16:06.425Z,5.49
2017-01-16T03:18:21.028Z,5.54
2017-01-16T03:19:01.901Z,5.45
2017-01-16T03:19:43.838Z,5.61
2017-01-16T03:20:24.609Z,5.51
2017-01-16T03:22:13.068Z,5.61
2017-01-16T03:23:00.103Z,5.63
2017-01-16T03:23:41.751Z,5.58
2017-01-16T03:24:22.487Z,5.63
2017-01-16T03:25:03.755Z,5.64
2017-01-16T03:25:44.852Z,5.63
2017-01-16T03:26:31.639Z,5.58
2017-01-16T03:27:11.111Z,5.54
2017-01-16T03:27:51.777Z,5.49
2017-01-16T03:28:32.264Z,5.54
2017-01-16T03:29:12.773Z,5.4
2017-01-16T03:29:53.274Z,5.49
2017-01-16T03:30:33.760Z,5.53
2017-01-16T03:31:14.300Z,5.56
2017-01-16T03:31:54.716Z,5.57
2017-01-16T03:32:35.214Z,5.57
2017-01-16T03:33:15.719Z,5.6
2017-01-16T03:33:56.208Z,5.67
2017-01-16T03:34:36.703Z,5.53
2017-01-16T03:35:17.193Z,5.58
2017-01-16T03:35:57.743Z,5.6
2017-01-16T03:36:38.175Z,5.56
2017-01-16T03:37:18.673Z,5.58
2017-01-16T03:37:59.347Z,5.54
2017-01-16T03:38:41.269Z,5.64
2017-01-16T03:39:21.508Z,5.45
2017-01-16T03:40:02.039Z,5.54
2017-01-16T03:40:42.671Z,5.54
2017-01-16T03:41:23.508Z,5.57
2017-01-16T03:42:04.531Z,5.64
2017-01-16T03:42:45.020Z,5.53
2017-01-16T03:43:25.635Z,5.63
2017-01-16T03:44:06.687Z,5.6
2017-01-16T03:44:47.861Z,5.68
2017-01-16T03:45:28.518Z,5.74
2017-01-16T03:46:08.883Z,5.64
2017-01-16T03:46:49.420Z,5.72
2017-01-16T03:47:30.135Z,5.65
2017-01-16T03:48:10.963Z,5.65
2017-01-16T03:48:51.610Z,5.67
2017-01-16T03:49:32.538Z,5.67
2017-01-16T03:50:13.256Z,5.64
2017-01-16T03:50:53.892Z,5.58
2017-01-16T03:51:34.608Z,5.57
2017-01-16T03:52:15.251Z,5.57
2017-01-16T03:52:55.712Z,5.4
2017-01-16T03:53:36.185Z,5.49
2017-01-16T03:54:16.662Z,5.58
2017-01-16T03:54:57.163Z,5.6
2017-01-16T03:55:37.635Z,5.71
2017-01-16T03:56:18.105Z,5.56
2017-01-16T03:56:58.617Z,5.53
2017-01-16T03:57:39.171Z,5.56
2017-01-16T03:58:19.808Z,5.57
2017-01-16T03:59:00.427Z,5.53
2017-01-16T03:59:40.981Z,5.46
2017-01-16T04:00:21.499Z,5.56
2017-01-16T04:01:01.986Z,5.49
2017-01-16T04:01:42.428Z,5.43
2017-01-16T04:02:22.925Z,5.58
2017-01-16T04:03:03.402Z,5.58
2017-01-16T04:03:43.896Z,5.51
2017-01-16T04:04:24.386Z,5.56
2017-01-16T04:05:04.812Z,5.58
2017-01-16T04:05:46.077Z,5.53
2017-01-16T04:06:26.864Z,5.54
2017-01-16T04:07:07.317Z,5.65
2017-01-16T04:07:47.817Z,5.74
2017-01-16T04:08:28.293Z,5.57
2017-01-16T04:09:08.755Z,5.54
2017-01-16T04:09:49.266Z,5.63
2017-01-16T04:10:29.756Z,5.74
2017-01-16T04:11:10.312Z,5.64
2017-01-16T04:11:50.869Z,5.58
2017-01-16T04:12:31.619Z,5.64
2017-01-16T04:13:12.135Z,5.75
2017-01-16T04:13:52.624Z,5.82
2017-01-16T04:14:33.293Z,5.86
2017-01-16T04:15:13.815Z,5.93
2017-01-16T04:15:54.386Z,5.99
2017-01-16T04:16:34.835Z,5.85
2017-01-16T04:17:15.345Z,5.79
2017-01-16T04:17:55.794Z,5.86
2017-01-16T04:18:36.364Z,5.83
2017-01-16T04:19:16.811Z,5.89
2017-01-16T04:19:57.332Z,5.83
2017-01-16T04:20:38.087Z,5.81
2017-01-16T04:21:18.575Z,5.83
2017-01-16T04:21:59.148Z,5.85
2017-01-16T04:22:39.636Z,5.75
2017-01-16T04:23:20.149Z,5.83
2017-01-16T04:24:00.925Z,5.79
2017-01-16T04:24:41.287Z,5.72
2017-01-16T04:25:21.805Z,5.83
2017-01-16T04:26:02.260Z,5.86
2017-01-16T04:26:42.941Z,5.67
2017-01-16T04:27:23.471Z,5.68
2017-01-16T04:28:03.952Z,5.6
2017-01-16T04:28:44.778Z,5.6
2017-01-16T04:29:25.327Z,5.58
2017-01-16T04:30:05.817Z,5.56
2017-01-16T04:30:46.276Z,5.57
2017-01-16T04:31:26.853Z,5.58
2017-01-16T04:32:07.271Z,5.58
2017-01-16T04:32:47.774Z,5.72
2017-01-16T04:33:28.329Z,5.83
2017-01-16T04:34:08.777Z,5.74
2017-01-16T04:34:49.287Z,5.85
2017-01-16T04:35:29.810Z,5.72
2017-01-16T04:36:10.254Z,5.76
2017-01-16T04:36:50.772Z,5.74
2017-01-16T04:37:31.262Z,5.63
2017-01-16T04:38:11.981Z,5.53
2017-01-16T04:38:52.212Z,5.54
2017-01-16T04:39:32.671Z,5.51
2017-01-16T04:40:13.197Z,5.53
2017-01-16T04:40:53.801Z,5.56
2017-01-16T04:41:34.350Z,5.57
2017-01-16T04:42:14.804Z,5.57
2017-01-16T04:42:55.564Z,5.54
2017-01-16T04:43:35.779Z,5.49
2017-01-16T04:44:16.312Z,5.56
2017-01-16T04:44:56.785Z,5.53
2017-01-16T04:45:37.265Z,5.53
2017-01-16T04:46:17.787Z,5.57
2017-01-16T04:46:58.258Z,5.61
2017-01-16T04:47:38.828Z,5.43
2017-01-16T04:48:19.258Z,5.56
2017-01-16T04:48:59.721Z,5.54
2017-01-16T04:49:40.219Z,5.49
2017-01-16T04:50:20.708Z,5.49
2017-01-16T04:51:01.287Z,5.48
2017-01-16T04:51:41.710Z,5.57
2017-01-16T04:52:22.391Z,5.54
2017-01-16T04:53:02.891Z,5.51
2017-01-16T04:53:43.371Z,5.6
2017-01-16T04:54:23.886Z,5.58
2017-01-16T04:55:04.588Z,5.43
2017-01-16T04:55:45.078Z,5.48
2017-01-16T04:56:25.609Z,5.56
2017-01-16T04:57:06.134Z,5.54
2017-01-16T04:57:46.559Z,5.54
2017-01-16T04:58:27.051Z,5.56
2017-01-16T04:59:07.547Z,5.51
2017-01-16T04:59:48.061Z,5.56
2017-01-16T05:00:28.539Z,5.65
2017-01-16T05:01:09.004Z,5.68
2017-01-16T05:01:49.561Z,5.6
2017-01-16T05:02:30.060Z,5.54
2017-01-16T05:03:10.573Z,5.54
2017-01-16T05:03:51.059Z,5.61
2017-01-16T05:04:31.550Z,5.57
2017-01-16T05:05:12.027Z,5.43
2017-01-16T05:05:52.512Z,5.45
2017-01-16T05:06:33.047Z,5.39
2017-01-16T05:07:13.518Z,5.49
2017-01-16T05:07:54.017Z,5.49
2017-01-16T05:08:34.526Z,5.4
2017-01-16T05:09:15.082Z,5.53
2017-01-16T05:09:55.529Z,5.54
2017-01-16T05:10:36.029Z,5.36
2017-01-16T05:11:16.622Z,5.35
2017-01-16T05:11:57.043Z,5.38
2017-01-16T05:12:37.473Z,5.36
2017-01-16T05:13:17.996Z,5.45
2017-01-16T05:13:58.448Z,5.38
2017-01-16T05:14:38.960Z,5.46
2017-01-16T05:15:19.427Z,5.51
2017-01-16T05:15:59.926Z,5.54
2017-01-16T05:16:40.387Z,5.53
2017-01-16T05:17:20.902Z,5.53
2017-01-16T05:18:01.437Z,5.61
2017-01-16T05:18:41.883Z,5.72
2017-01-16T05:19:22.403Z,5.49
2017-01-16T05:20:02.865Z,5.48
2017-01-16T05:20:43.381Z,5.54
2017-01-16T05:21:23.903Z,5.42
2017-01-16T05:22:04.370Z,5.4
2017-01-16T05:22:44.902Z,5.54
2017-01-16T05:23:25.444Z,5.48
2017-01-16T05:24:05.853Z,5.58
2017-01-16T05:24:46.401Z,5.39
2017-01-16T05:25:26.891Z,5.53
2017-01-16T05:26:07.384Z,5.48
2017-01-16T05:26:47.851Z,5.46
2017-01-16T05:27:28.358Z,5.51
2017-01-16T05:28:08.839Z,5.46
2017-01-16T05:28:49.340Z,5.46
2017-01-16T05:29:29.822Z,5.51
2017-01-16T05:30:10.305Z,5.6
2017-01-16T05:30:50.830Z,5.56
2017-01-16T05:31:31.284Z,5.65
2017-01-16T05:32:11.829Z,5.51
2017-01-16T05:32:52.260Z,5.38
2017-01-16T05:33:32.755Z,5.35
2017-01-16T05:34:13.290Z,5.43
2017-01-16T05:34:53.798Z,5.4
2017-01-16T05:35:34.313Z,5.38
2017-01-16T05:36:14.806Z,5.45
2017-01-16T05:36:55.278Z,5.39
2017-01-16T05:37:35.750Z,5.39
2017-01-16T05:38:16.265Z,5.25
2017-01-16T05:38:56.723Z,5.38
2017-01-16T05:39:37.227Z,5.38
2017-01-16T05:40:17.714Z,5.39
2017-01-16T05:40:58.179Z,5.33
2017-01-16T05:41:38.706Z,5.35
2017-01-16T05:42:19.165Z,5.4
2017-01-16T05:42:59.686Z,5.35
2017-01-16T05:43:40.156Z,5.3
2017-01-16T05:44:20.641Z,5.27
2017-01-16T05:45:01.069Z,5.33
2017-01-16T05:45:41.554Z,5.33
2017-01-16T05:46:22.043Z,5.31
2017-01-16T05:47:02.536Z,5.24
2017-01-16T05:47:43.001Z,5.21
2017-01-16T05:48:23.509Z,5.27
2017-01-16T05:49:04.037Z,5.35
2017-01-16T05:50:57.042Z,5.31
2017-01-16T05:51:37.549Z,5.27
2017-01-16T05:52:18.063Z,5.43
2017-01-16T05:52:58.571Z,5.35
2017-01-16T05:53:39.082Z,5.3
2017-01-16T05:54:19.521Z,5.35
2017-01-16T05:55:00.022Z,5.2
2017-01-16T05:55:40.564Z,5.24
2017-01-16T05:56:20.997Z,5.24
2017-01-16T05:57:01.453Z,5.18
2017-01-16T05:57:41.939Z,5.21
2017-01-16T05:58:22.411Z,5.3
2017-01-16T05:59:02.871Z,5.33
2017-01-16T05:59:43.343Z,5.27
2017-01-16T06:00:23.853Z,5.35
2017-01-16T06:01:04.342Z,5.38
2017-01-16T06:01:44.860Z,5.25
2017-01-16T06:02:25.338Z,5.31
2017-01-16T06:03:05.804Z,5.35
2017-01-16T06:03:46.304Z,5.35
2017-01-16T06:04:26.813Z,5.31
2017-01-16T06:05:07.309Z,5.24
2017-01-16T06:05:47.818Z,5.33
2017-01-16T06:06:28.275Z,5.22
2017-01-16T06:07:08.791Z,5.28
2017-01-16T06:07:49.251Z,5.35
2017-01-16T06:08:29.760Z,5.38
2017-01-16T06:09:10.239Z,5.25
2017-01-16T06:09:50.727Z,5.25
2017-01-16T06:10:31.231Z,5.31
2017-01-16T06:11:11.721Z,5.09
2017-01-16T06:11:52.207Z,4.99
2017-01-16T06:12:32.714Z,5.15
2017-01-16T06:13:13.207Z,5.17
2017-01-16T06:13:53.711Z,5.2
2017-01-16T06:14:34.213Z,5.22
2017-01-16T06:15:14.706Z,5.28
2017-01-16T06:15:55.197Z,5.1
2017-01-16T06:16:35.691Z,5.2
2017-01-16T06:17:16.212Z,5.09
2017-01-16T06:17:56.683Z,5.04
2017-01-16T06:18:37.176Z,5.03
2017-01-16T06:19:17.687Z,5
2017-01-16T06:19:58.143Z,4.91
2017-01-16T06:20:38.636Z,4.97
2017-01-16T06:21:19.127Z,5.09
2017-01-16T06:21:59.635Z,5.12
2017-01-16T06:22:40.129Z,5.03
2017-01-16T06:23:20.610Z,5.17
2017-01-16T06:24:01.056Z,5.12
2017-01-16T06:24:41.626Z,5.1
2017-01-16T06:25:22.031Z,5.07
2017-01-16T06:26:02.557Z,5.12
2017-01-16T06:26:43.031Z,5.12
2017-01-16T06:27:23.503Z,5.07
2017-01-16T06:28:04.077Z,5.07
2017-01-16T06:28:44.584Z,5.12
2017-01-16T06:29:25.115Z,5.03
2017-01-16T06:30:05.576Z,4.89
2017-01-16T06:30:46.109Z,4.94
2017-01-16T06:31:26.573Z,4.99
2017-01-16T06:32:07.029Z,4.89
2017-01-16T06:32:47.618Z,4.85
2017-01-16T06:33:28.090Z,4.66
2017-01-16T06:34:08.551Z,4.69
2017-01-16T06:34:49.039Z,4.77
2017-01-16T06:35:29.525Z,4.8
2017-01-16T06:36:10.032Z,4.78
2017-01-16T06:36:50.521Z,4.94
2017-01-16T06:37:31.024Z,4.92
2017-01-16T06:38:11.524Z,4.91
2017-01-16T06:38:52.029Z,4.89
2017-01-16T06:39:32.503Z,4.94
2017-01-16T06:40:13.016Z,5.02
2017-01-16T06:40:54.051Z,4.91
2017-01-16T06:41:34.539Z,4.78
2017-01-16T06:42:15.072Z,4.72
2017-01-16T06:42:55.541Z,4.63
2017-01-16T06:43:36.056Z,4.6
2017-01-16T06:44:16.565Z,4.72
2017-01-16T06:44:57.078Z,4.75
2017-01-16T06:45:37.625Z,4.84
2017-01-16T06:46:18.071Z,5.02
2017-01-16T06:46:58.517Z,4.99
2017-01-16T06:47:39.007Z,4.96
2017-01-16T06:48:19.519Z,4.94
2017-01-16T06:48:59.979Z,4.99
2017-01-16T06:49:40.512Z,5.06
2017-01-16T06:50:21.020Z,5.02
2017-01-16T06:51:01.517Z,4.99
2017-01-16T06:51:42.035Z,4.84
2017-01-16T06:52:22.476Z,4.92
2017-01-16T06:53:02.986Z,4.72
2017-01-16T06:53:43.501Z,4.77
2017-01-16T06:54:23.960Z,4.99
2017-01-16T06:55:04.424Z,4.94
2017-01-16T06:55:44.922Z,4.89
2017-01-16T06:56:25.404Z,4.82
2017-01-16T06:57:05.872Z,4.7
2017-01-16T06:57:46.346Z,4.85
2017-01-16T06:58:26.851Z,4.86
2017-01-16T06:59:07.300Z,4.91
2017-01-16T06:59:47.834Z,4.91
2017-01-16T07:00:28.289Z,4.89
2017-01-16T07:01:08.789Z,5
2017-01-16T07:01:49.253Z,5
2017-01-16T07:02:29.790Z,4.96
2017-01-16T07:03:10.264Z,4.89
2017-01-16T07:03:50.746Z,4.88
2017-01-16T07:04:31.211Z,4.99
2017-01-16T07:05:11.720Z,4.94
2017-01-16T07:05:52.213Z,4.91
2017-01-16T07:06:32.715Z,4.73
2017-01-16T07:07:13.238Z,4.78
2017-01-16T07:07:53.741Z,4.92
2017-01-16T07:08:34.263Z,4.92
2017-01-16T07:09:14.763Z,4.96
2017-01-16T07:09:55.272Z,4.73
2017-01-16T07:10:35.789Z,4.97
2017-01-16T07:11:16.308Z,5.03
2017-01-16T07:11:56.821Z,5.25
2017-01-16T07:12:37.329Z,5.89
2017-01-16T07:13:17.836Z,5.74
2017-01-16T07:13:58.320Z,5.61
2017-01-16T07:14:38.830Z,5.56
2017-01-16T07:15:19.347Z,5.36
2017-01-16T07:15:59.838Z,5.49
2017-01-16T07:16:40.353Z,5.99
2017-01-16T07:17:20.817Z,5.97
2017-01-16T07:18:01.322Z,5.91
2017-01-16T07:18:41.823Z,5.43
2017-01-16T07:19:22.409Z,5.33
2017-01-16T07:20:02.891Z,5.12
2017-01-16T07:20:43.460Z,5.1
2017-01-16T07:21:23.960Z,5.07
2017-01-16T07:22:04.472Z,5.03
2017-01-16T07:22:45.005Z,5.43
2017-01-16T07:23:25.514Z,6.22
2017-01-16T07:25:23.204Z,7.2
2017-01-16T07:26:03.984Z,6.73
2017-01-16T07:26:44.508Z,5.93
2017-01-16T07:27:25.248Z,5.9
2017-01-16T07:28:05.758Z,5.89
2017-01-16T07:28:46.267Z,5.78
2017-01-16T07:29:27.052Z,5.48
2017-01-16T07:30:07.561Z,5.33
2017-01-16T07:30:48.068Z,5.2
2017-01-16T07:31:28.593Z,5.17
2017-01-16T07:32:09.100Z,5.2
2017-01-16T07:32:49.701Z,5.17
2017-01-16T07:33:30.208Z,5.09
2017-01-16T07:34:10.720Z,5.1
2017-01-16T07:34:51.243Z,5.17
2017-01-16T07:35:31.748Z,5.17
2017-01-16T07:36:12.267Z,5.2
2017-01-16T07:36:52.787Z,5.09
2017-01-16T07:37:33.239Z,5.09
2017-01-16T07:38:13.737Z,5.09
2017-01-16T07:38:54.265Z,5.04
2017-01-16T07:39:34.761Z,5.07
2017-01-16T07:41:22.734Z,4.77
2017-01-16T07:42:03.226Z,4.86
2017-01-16T07:42:43.735Z,4.8
2017-01-16T07:43:24.319Z,4.72
2017-01-16T07:44:04.840Z,4.75
2017-01-16T07:44:45.328Z,4.78
2017-01-16T07:45:25.834Z,4.88
2017-01-16T07:46:06.500Z,4.75
2017-01-16T07:46:47.006Z,4.88
2017-01-16T07:47:27.516Z,4.8
2017-01-16T07:48:08.103Z,4.96
2017-01-16T07:48:48.590Z,4.97
2017-01-16T07:49:29.077Z,5
2017-01-16T07:50:09.556Z,5.07
2017-01-16T07:50:50.123Z,4.97
2017-01-16T07:51:30.586Z,4.94
2017-01-16T07:52:11.105Z,4.96
2017-01-16T07:52:51.632Z,4.75
2017-01-16T07:53:32.114Z,4.84
2017-01-16T07:54:12.617Z,4.8
2017-01-16T07:54:53.074Z,5.03
2017-01-16T07:55:33.589Z,5.63
2017-01-16T07:56:14.074Z,5.85
2017-01-16T07:56:54.580Z,5.81
2017-01-16T07:57:35.092Z,6.46
2017-01-16T07:58:15.623Z,6.27
2017-01-16T07:58:56.090Z,5.51
2017-01-16T07:59:36.612Z,5.51
2017-01-16T08:00:17.039Z,5.78
2017-01-16T08:00:57.549Z,5.68
2017-01-16T08:01:38.085Z,5.67
2017-01-16T08:02:18.575Z,5.58
2017-01-16T08:02:59.041Z,5.49
2017-01-16T08:03:39.528Z,5.45
2017-01-16T08:04:20.031Z,5.25
2017-01-16T08:05:00.545Z,5.07
2017-01-16T08:05:41.021Z,5.09
2017-01-16T08:06:21.534Z,5.06
2017-01-16T08:07:02.018Z,5.03
2017-01-16T08:07:42.470Z,5.2
2017-01-16T08:08:22.968Z,5.38
2017-01-16T08:10:21.325Z,5.28
2017-01-16T08:11:01.944Z,5.31
2017-01-16T08:11:42.446Z,5.28
2017-01-16T08:12:23.104Z,5.35
2017-01-16T08:13:03.602Z,5.24
2017-01-16T08:13:44.116Z,5.28
2017-01-16T08:14:24.641Z,5.3
2017-01-16T08:15:05.155Z,5.13
2017-01-16T08:15:45.655Z,5.07
2017-01-16T08:16:26.169Z,5.21
2017-01-16T08:17:06.674Z,5.24
2017-01-16T08:17:47.184Z,5.33
2017-01-16T08:18:27.725Z,5.27
2017-01-16T08:19:08.215Z,5.35
2017-01-16T08:19:48.740Z,5.17
2017-01-16T08:20:29.227Z,5.21
2017-01-16T08:21:09.746Z,5.3
2017-01-16T08:21:50.251Z,5.21
2017-01-16T08:22:30.757Z,5.21
2017-01-16T08:23:11.269Z,5.31
2017-01-16T08:23:51.787Z,5.27
2017-01-16T08:24:32.298Z,5.3
2017-01-16T08:25:12.783Z,5.21
2017-01-16T08:25:53.277Z,5.31
2017-01-16T08:26:33.772Z,5.33
2017-01-16T08:27:14.272Z,5.4
2017-01-16T08:27:54.783Z,5.36
2017-01-16T08:28:35.298Z,5.36
2017-01-16T08:29:15.830Z,5.38
2017-01-16T08:29:56.307Z,5.33
2017-01-16T08:30:36.810Z,5.24
2017-01-16T08:32:51.669Z,5.3
2017-01-16T08:33:32.169Z,5.28
2017-01-16T08:34:12.707Z,5.38
2017-01-16T08:34:53.214Z,5.33
2017-01-16T08:36:51.328Z,5.21
2017-01-16T08:37:31.840Z,5.3
2017-01-16T08:38:12.358Z,5.27
2017-01-16T08:38:52.840Z,5.36
2017-01-16T08:39:33.356Z,5.27
2017-01-16T08:40:13.850Z,5.39
2017-01-16T08:40:54.326Z,5.49
2017-01-16T08:41:34.859Z,5.49
2017-01-16T08:42:15.318Z,5.72
2017-01-16T08:42:55.805Z,5.67
2017-01-16T08:43:36.297Z,5.76
2017-01-16T08:44:16.805Z,5.83
2017-01-16T08:44:57.285Z,5.81
2017-01-16T08:45:37.805Z,5.96
2017-01-16T08:46:18.320Z,6.11
2017-01-16T08:46:58.829Z,5.68
2017-01-16T08:47:39.337Z,5.85
2017-01-16T08:48:19.759Z,5.74
2017-01-16T08:49:00.280Z,5.72
2017-01-16T08:49:40.774Z,5.45
2017-01-16T08:50:21.280Z,5.58
2017-01-16T08:51:01.802Z,5.57
2017-01-16T08:51:42.325Z,5.76
2017-01-16T08:52:22.859Z,5.68
2017-01-16T08:53:03.373Z,5.78
2017-01-16T08:53:43.913Z,5.68
2017-01-16T08:54:24.406Z,5.58
2017-01-16T08:55:04.925Z,5.46
2017-01-16T08:55:45.418Z,5.58
2017-01-16T08:56:25.925Z,5.63
2017-01-16T08:57:06.462Z,5.6
2017-01-16T08:57:46.962Z,5.49
2017-01-16T08:58:27.472Z,5.49
2017-01-16T08:59:07.975Z,5.49
2017-01-16T08:59:48.497Z,5.53
2017-01-16T09:00:28.988Z,5.56
2017-01-16T09:01:09.531Z,5.46
2017-01-16T09:01:50.008Z,5.42
2017-01-16T09:02:30.493Z,5.35
2017-01-16T09:03:10.973Z,5.53
2017-01-16T09:03:51.499Z,5.43
2017-01-16T09:04:31.992Z,5.4
2017-01-16T09:05:12.444Z,5.49
2017-01-16T09:05:52.945Z,5.64
2017-01-16T09:06:33.467Z,5.58
2017-01-16T09:07:13.903Z,5.64
2017-01-16T09:07:54.390Z,5.68
2017-01-16T09:08:34.907Z,5.75
2017-01-16T09:09:15.398Z,5.75
2017-01-16T09:09:55.881Z,5.63
2017-01-16T09:10:36.382Z,5.71
2017-01-16T09:11:16.904Z,5.94
2017-01-16T09:11:57.407Z,6.14
2017-01-16T09:12:37.912Z,6.03
2017-01-16T09:13:18.431Z,5.89
2017-01-16T09:13:58.956Z,6.01
2017-01-16T09:14:39.484Z,5.97
2017-01-16T09:15:20.008Z,5.83
2017-01-16T09:16:00.537Z,5.97
2017-01-16T09:16:41.057Z,6.11
2017-01-16T09:17:21.580Z,6.04
2017-01-16T09:18:02.081Z,5.96
2017-01-16T09:18:42.606Z,5.86
2017-01-16T09:19:23.141Z,6
2017-01-16T09:20:03.654Z,6
2017-01-16T09:20:44.160Z,5.97
2017-01-16T09:21:24.672Z,5.75